sensor_id;sensor_type;location;lat;lon;timestamp;P1;durP1;ratioP1;P2;durP2;ratioP2
34737;SDS011;39910;47.154;27.614;2023-10-19T00:00:06;9.43;;;9.02;;
34737;SDS011;39910;47.154;27.614;2023-10-19T00:02:50;10.05;;;9.55;;
34737;SDS011;39910;47.154;27.614;2023-10-19T00:05:19;9.20;;;8.80;;
34737;SDS011;39910;47.154;27.614;2023-10-19T00:07:45;9.45;;;9.05;;
34737;SDS011;39910;47.154;27.614;2023-10-19T00:10:11;9.35;;;8.95;;
34737;SDS011;39910;47.154;27.614;2023-10-19T00:12:40;10.13;;;9.63;;
34737;SDS011;39910;47.154;27.614;2023-10-19T00:15:06;10.00;;;9.50;;
34737;SDS011;39910;47.154;27.614;2023-10-19T00:17:31;9.80;;;9.30;;
34737;SDS011;39910;47.154;27.614;2023-10-19T00:19:58;9.30;;;8.90;;
34737;SDS011;39910;47.154;27.614;2023-10-19T00:22:44;9.77;;;9.27;;
34737;SDS011;39910;47.154;27.614;2023-10-19T00:25:10;10.55;;;10.05;;
34737;SDS011;39910;47.154;27.614;2023-10-19T00:27:38;9.82;;;9.32;;
34737;SDS011;39910;47.154;27.614;2023-10-19T00:30:04;9.77;;;9.27;;
34737;SDS011;39910;47.154;27.614;2023-10-19T00:32:33;9.95;;;9.45;;
34737;SDS011;39910;47.154;27.614;2023-10-19T00:35:03;9.85;;;9.35;;
34737;SDS011;39910;47.154;27.614;2023-10-19T00:37:34;9.90;;;9.40;;
34737;SDS011;39910;47.154;27.614;2023-10-19T00:40:07;9.32;;;8.93;;
34737;SDS011;39910;47.154;27.614;2023-10-19T00:42:41;9.00;;;8.60;;
34737;SDS011;39910;47.154;27.614;2023-10-19T00:45:11;9.80;;;9.30;;
34737;SDS011;39910;47.154;27.614;2023-10-19T00:47:38;10.10;;;9.60;;
34737;SDS011;39910;47.154;27.614;2023-10-19T00:50:08;9.23;;;8.82;;
34737;SDS011;39910;47.154;27.614;2023-10-19T00:52:40;9.70;;;9.30;;
34737;SDS011;39910;47.154;27.614;2023-10-19T00:55:11;9.30;;;8.90;;
34737;SDS011;39910;47.154;27.614;2023-10-19T00:57:38;9.75;;;9.25;;
34737;SDS011;39910;47.154;27.614;2023-10-19T01:00:06;9.85;;;9.35;;
34737;SDS011;39910;47.154;27.614;2023-10-19T01:02:40;9.48;;;9.07;;
34737;SDS011;39910;47.154;27.614;2023-10-19T01:05:10;9.27;;;8.88;;
34737;SDS011;39910;47.154;27.614;2023-10-19T01:07:38;10.15;;;9.65;;
34737;SDS011;39910;47.154;27.614;2023-10-19T01:10:04;9.90;;;9.40;;
34737;SDS011;39910;47.154;27.614;2023-10-19T01:12:48;9.20;;;8.80;;
34737;SDS011;39910;47.154;27.614;2023-10-19T01:15:17;9.88;;;9.38;;
34737;SDS011;39910;47.154;27.614;2023-10-19T01:17:49;9.55;;;9.15;;
34737;SDS011;39910;47.154;27.614;2023-10-19T01:20:19;10.38;;;9.88;;
34737;SDS011;39910;47.154;27.614;2023-10-19T01:22:51;10.18;;;9.68;;
34737;SDS011;39910;47.154;27.614;2023-10-19T01:28:08;9.80;;;9.30;;
34737;SDS011;39910;47.154;27.614;2023-10-19T01:30:34;10.10;;;9.60;;
34737;SDS011;39910;47.154;27.614;2023-10-19T01:33:01;9.45;;;9.05;;
34737;SDS011;39910;47.154;27.614;2023-10-19T01:35:27;9.50;;;9.10;;
34737;SDS011;39910;47.154;27.614;2023-10-19T01:38:12;9.38;;;8.98;;
34737;SDS011;39910;47.154;27.614;2023-10-19T01:40:37;9.52;;;9.10;;
34737;SDS011;39910;47.154;27.614;2023-10-19T01:43:11;9.15;;;8.75;;
34737;SDS011;39910;47.154;27.614;2023-10-19T01:45:45;9.27;;;8.88;;
34737;SDS011;39910;47.154;27.614;2023-10-19T01:48:10;9.32;;;8.93;;
34737;SDS011;39910;47.154;27.614;2023-10-19T01:50:38;9.90;;;9.40;;
34737;SDS011;39910;47.154;27.614;2023-10-19T01:53:04;9.65;;;9.15;;
34737;SDS011;39910;47.154;27.614;2023-10-19T01:55:38;9.57;;;9.07;;
34737;SDS011;39910;47.154;27.614;2023-10-19T01:58:03;9.40;;;9.00;;
34737;SDS011;39910;47.154;27.614;2023-10-19T02:00:28;10.40;;;9.90;;
34737;SDS011;39910;47.154;27.614;2023-10-19T02:02:54;9.35;;;8.95;;
34737;SDS011;39910;47.154;27.614;2023-10-19T02:05:19;9.75;;;9.25;;
34737;SDS011;39910;47.154;27.614;2023-10-19T02:07:47;9.55;;;9.15;;
34737;SDS011;39910;47.154;27.614;2023-10-19T02:10:12;9.38;;;8.98;;
34737;SDS011;39910;47.154;27.614;2023-10-19T02:12:37;9.35;;;8.95;;
34737;SDS011;39910;47.154;27.614;2023-10-19T02:15:07;10.32;;;9.82;;
34737;SDS011;39910;47.154;27.614;2023-10-19T02:17:33;9.50;;;9.07;;
34737;SDS011;39910;47.154;27.614;2023-10-19T02:19:59;9.48;;;9.07;;
34737;SDS011;39910;47.154;27.614;2023-10-19T02:22:24;9.40;;;9.00;;
34737;SDS011;39910;47.154;27.614;2023-10-19T02:24:49;9.80;;;9.30;;
34737;SDS011;39910;47.154;27.614;2023-10-19T02:27:15;10.00;;;9.50;;
34737;SDS011;39910;47.154;27.614;2023-10-19T02:29:40;9.88;;;9.38;;
34737;SDS011;39910;47.154;27.614;2023-10-19T02:32:06;9.10;;;8.70;;
34737;SDS011;39910;47.154;27.614;2023-10-19T02:34:32;9.73;;;9.23;;
34737;SDS011;39910;47.154;27.614;2023-10-19T02:36:57;9.77;;;9.27;;
34737;SDS011;39910;47.154;27.614;2023-10-19T02:39:23;10.40;;;9.90;;
34737;SDS011;39910;47.154;27.614;2023-10-19T02:41:53;9.90;;;9.40;;
34737;SDS011;39910;47.154;27.614;2023-10-19T02:44:20;9.30;;;8.90;;
34737;SDS011;39910;47.154;27.614;2023-10-19T02:46:46;9.57;;;9.13;;
34737;SDS011;39910;47.154;27.614;2023-10-19T02:49:13;9.68;;;9.18;;
34737;SDS011;39910;47.154;27.614;2023-10-19T02:51:41;10.05;;;9.55;;
34737;SDS011;39910;47.154;27.614;2023-10-19T02:54:10;9.30;;;8.90;;
34737;SDS011;39910;47.154;27.614;2023-10-19T02:56:43;10.63;;;10.02;;
34737;SDS011;39910;47.154;27.614;2023-10-19T02:59:12;9.07;;;8.68;;
34737;SDS011;39910;47.154;27.614;2023-10-19T03:01:41;9.30;;;8.90;;
34737;SDS011;39910;47.154;27.614;2023-10-19T03:04:09;9.90;;;9.40;;
34737;SDS011;39910;47.154;27.614;2023-10-19T03:06:37;11.07;;;10.48;;
34737;SDS011;39910;47.154;27.614;2023-10-19T03:09:04;9.20;;;8.80;;
34737;SDS011;39910;47.154;27.614;2023-10-19T03:11:30;9.55;;;9.10;;
34737;SDS011;39910;47.154;27.614;2023-10-19T03:13:57;10.02;;;9.52;;
34737;SDS011;39910;47.154;27.614;2023-10-19T03:16:23;9.40;;;9.00;;
34737;SDS011;39910;47.154;27.614;2023-10-19T03:18:49;9.57;;;9.18;;
34737;SDS011;39910;47.154;27.614;2023-10-19T03:21:15;9.77;;;9.27;;
34737;SDS011;39910;47.154;27.614;2023-10-19T03:23:41;10.10;;;9.60;;
34737;SDS011;39910;47.154;27.614;2023-10-19T03:26:06;10.68;;;10.07;;
34737;SDS011;39910;47.154;27.614;2023-10-19T03:28:50;9.90;;;9.40;;
34737;SDS011;39910;47.154;27.614;2023-10-19T03:31:23;9.27;;;8.88;;
34737;SDS011;39910;47.154;27.614;2023-10-19T03:33:51;9.70;;;9.20;;
34737;SDS011;39910;47.154;27.614;2023-10-19T03:36:20;9.60;;;9.10;;
34737;SDS011;39910;47.154;27.614;2023-10-19T03:38:46;9.95;;;9.45;;
34737;SDS011;39910;47.154;27.614;2023-10-19T03:41:11;9.65;;;9.15;;
34737;SDS011;39910;47.154;27.614;2023-10-19T03:43:37;9.82;;;9.32;;
34737;SDS011;39910;47.154;27.614;2023-10-19T03:46:05;9.93;;;9.43;;
34737;SDS011;39910;47.154;27.614;2023-10-19T03:48:39;9.60;;;9.10;;
34737;SDS011;39910;47.154;27.614;2023-10-19T03:51:05;9.77;;;9.27;;
34737;SDS011;39910;47.154;27.614;2023-10-19T03:53:30;9.30;;;8.90;;
34737;SDS011;39910;47.154;27.614;2023-10-19T03:55:56;9.30;;;8.90;;
34737;SDS011;39910;47.154;27.614;2023-10-19T03:58:22;9.45;;;9.05;;
34737;SDS011;39910;47.154;27.614;2023-10-19T04:00:48;9.98;;;9.48;;
34737;SDS011;39910;47.154;27.614;2023-10-19T04:03:14;9.88;;;9.38;;
34737;SDS011;39910;47.154;27.614;2023-10-19T04:05:41;9.15;;;8.75;;
34737;SDS011;39910;47.154;27.614;2023-10-19T04:08:06;9.30;;;8.90;;
34737;SDS011;39910;47.154;27.614;2023-10-19T04:10:45;9.43;;;9.02;;
34737;SDS011;39910;47.154;27.614;2023-10-19T04:13:33;9.02;;;8.63;;
34737;SDS011;39910;47.154;27.614;2023-10-19T04:15:59;9.30;;;8.90;;
34737;SDS011;39910;47.154;27.614;2023-10-19T04:18:24;9.10;;;8.70;;
34737;SDS011;39910;47.154;27.614;2023-10-19T04:20:50;9.80;;;9.30;;
34737;SDS011;39910;47.154;27.614;2023-10-19T04:23:16;10.30;;;9.80;;
34737;SDS011;39910;47.154;27.614;2023-10-19T04:25:41;9.55;;;9.07;;
34737;SDS011;39910;47.154;27.614;2023-10-19T04:28:06;10.68;;;10.07;;
34737;SDS011;39910;47.154;27.614;2023-10-19T04:30:32;10.68;;;10.07;;
34737;SDS011;39910;47.154;27.614;2023-10-19T04:32:58;9.80;;;9.30;;
34737;SDS011;39910;47.154;27.614;2023-10-19T04:35:24;10.25;;;9.75;;
34737;SDS011;39910;47.154;27.614;2023-10-19T04:37:52;11.25;;;10.65;;
34737;SDS011;39910;47.154;27.614;2023-10-19T04:40:18;9.65;;;9.15;;
34737;SDS011;39910;47.154;27.614;2023-10-19T04:42:44;9.95;;;9.45;;
34737;SDS011;39910;47.154;27.614;2023-10-19T04:45:09;10.25;;;9.75;;
34737;SDS011;39910;47.154;27.614;2023-10-19T04:47:37;9.63;;;9.13;;
34737;SDS011;39910;47.154;27.614;2023-10-19T04:50:03;10.60;;;10.00;;
34737;SDS011;39910;47.154;27.614;2023-10-19T04:52:28;11.18;;;10.57;;
34737;SDS011;39910;47.154;27.614;2023-10-19T04:54:54;10.15;;;9.65;;
34737;SDS011;39910;47.154;27.614;2023-10-19T04:57:19;10.10;;;9.60;;
34737;SDS011;39910;47.154;27.614;2023-10-19T04:59:46;10.15;;;9.65;;
34737;SDS011;39910;47.154;27.614;2023-10-19T05:02:11;10.73;;;10.13;;
34737;SDS011;39910;47.154;27.614;2023-10-19T05:04:36;9.85;;;9.35;;
34737;SDS011;39910;47.154;27.614;2023-10-19T05:07:02;10.57;;;9.98;;
34737;SDS011;39910;47.154;27.614;2023-10-19T05:09:29;11.23;;;10.63;;
34737;SDS011;39910;47.154;27.614;2023-10-19T05:11:54;9.73;;;9.23;;
34737;SDS011;39910;47.154;27.614;2023-10-19T05:14:20;10.63;;;10.02;;
34737;SDS011;39910;47.154;27.614;2023-10-19T05:16:45;10.73;;;10.13;;
34737;SDS011;39910;47.154;27.614;2023-10-19T05:19:10;10.38;;;9.88;;
34737;SDS011;39910;47.154;27.614;2023-10-19T05:21:36;9.68;;;9.18;;
34737;SDS011;39910;47.154;27.614;2023-10-19T05:24:01;10.88;;;10.27;;
34737;SDS011;39910;47.154;27.614;2023-10-19T05:26:26;10.85;;;10.25;;
34737;SDS011;39910;47.154;27.614;2023-10-19T05:28:52;10.13;;;9.63;;
34737;SDS011;39910;47.154;27.614;2023-10-19T05:31:17;10.27;;;9.77;;
34737;SDS011;39910;47.154;27.614;2023-10-19T05:33:42;10.35;;;9.85;;
34737;SDS011;39910;47.154;27.614;2023-10-19T05:36:08;10.15;;;9.65;;
34737;SDS011;39910;47.154;27.614;2023-10-19T05:38:34;10.38;;;9.88;;
34737;SDS011;39910;47.154;27.614;2023-10-19T05:40:59;10.88;;;10.27;;
34737;SDS011;39910;47.154;27.614;2023-10-19T05:43:25;9.60;;;9.10;;
34737;SDS011;39910;47.154;27.614;2023-10-19T05:45:50;10.32;;;9.82;;
34737;SDS011;39910;47.154;27.614;2023-10-19T05:48:16;10.00;;;9.50;;
34737;SDS011;39910;47.154;27.614;2023-10-19T05:50:42;10.02;;;9.52;;
34737;SDS011;39910;47.154;27.614;2023-10-19T05:53:07;10.73;;;10.13;;
34737;SDS011;39910;47.154;27.614;2023-10-19T05:55:33;10.65;;;10.05;;
34737;SDS011;39910;47.154;27.614;2023-10-19T05:58:01;10.98;;;10.38;;
34737;SDS011;39910;47.154;27.614;2023-10-19T06:00:26;9.85;;;9.35;;
34737;SDS011;39910;47.154;27.614;2023-10-19T06:02:51;10.98;;;10.38;;
34737;SDS011;39910;47.154;27.614;2023-10-19T06:05:17;10.45;;;9.93;;
34737;SDS011;39910;47.154;27.614;2023-10-19T06:07:46;10.07;;;9.57;;
34737;SDS011;39910;47.154;27.614;2023-10-19T06:10:16;10.52;;;9.93;;
34737;SDS011;39910;47.154;27.614;2023-10-19T06:12:45;10.15;;;9.65;;
34737;SDS011;39910;47.154;27.614;2023-10-19T06:15:11;10.90;;;10.30;;
34737;SDS011;39910;47.154;27.614;2023-10-19T06:17:40;10.43;;;9.93;;
34737;SDS011;39910;47.154;27.614;2023-10-19T06:20:09;9.98;;;9.48;;
34737;SDS011;39910;47.154;27.614;2023-10-19T06:22:54;10.10;;;9.60;;
34737;SDS011;39910;47.154;27.614;2023-10-19T06:25:21;11.32;;;10.73;;
34737;SDS011;39910;47.154;27.614;2023-10-19T06:27:47;11.43;;;10.82;;
34737;SDS011;39910;47.154;27.614;2023-10-19T06:30:13;10.40;;;9.90;;
34737;SDS011;39910;47.154;27.614;2023-10-19T06:32:43;11.05;;;10.45;;
34737;SDS011;39910;47.154;27.614;2023-10-19T06:35:09;10.55;;;10.02;;
34737;SDS011;39910;47.154;27.614;2023-10-19T06:37:36;11.57;;;10.98;;
34737;SDS011;39910;47.154;27.614;2023-10-19T06:40:01;12.40;;;11.70;;
34737;SDS011;39910;47.154;27.614;2023-10-19T06:42:27;10.38;;;9.88;;
34737;SDS011;39910;47.154;27.614;2023-10-19T06:44:52;11.27;;;10.68;;
34737;SDS011;39910;47.154;27.614;2023-10-19T06:47:18;10.80;;;10.25;;
34737;SDS011;39910;47.154;27.614;2023-10-19T06:49:43;11.27;;;10.68;;
34737;SDS011;39910;47.154;27.614;2023-10-19T06:52:09;11.18;;;10.57;;
34737;SDS011;39910;47.154;27.614;2023-10-19T06:54:36;10.23;;;9.73;;
34737;SDS011;39910;47.154;27.614;2023-10-19T06:57:03;10.60;;;10.10;;
34737;SDS011;39910;47.154;27.614;2023-10-19T06:59:28;10.70;;;10.20;;
34737;SDS011;39910;47.154;27.614;2023-10-19T07:01:54;10.70;;;10.20;;
34737;SDS011;39910;47.154;27.614;2023-10-19T07:04:19;11.57;;;10.98;;
34737;SDS011;39910;47.154;27.614;2023-10-19T07:06:45;11.32;;;10.73;;
34737;SDS011;39910;47.154;27.614;2023-10-19T07:09:12;11.07;;;10.57;;
34737;SDS011;39910;47.154;27.614;2023-10-19T07:11:38;10.75;;;10.25;;
34737;SDS011;39910;47.154;27.614;2023-10-19T07:14:03;11.02;;;10.52;;
34737;SDS011;39910;47.154;27.614;2023-10-19T07:16:32;11.57;;;10.98;;
34737;SDS011;39910;47.154;27.614;2023-10-19T07:18:57;10.90;;;10.40;;
34737;SDS011;39910;47.154;27.614;2023-10-19T07:21:24;12.43;;;11.82;;
34737;SDS011;39910;47.154;27.614;2023-10-19T07:23:50;11.27;;;10.77;;
34737;SDS011;39910;47.154;27.614;2023-10-19T07:26:17;12.35;;;11.75;;
34737;SDS011;39910;47.154;27.614;2023-10-19T07:28:44;11.50;;;10.98;;
34737;SDS011;39910;47.154;27.614;2023-10-19T07:31:10;10.70;;;10.20;;
34737;SDS011;39910;47.154;27.614;2023-10-19T07:33:40;11.32;;;10.82;;
34737;SDS011;39910;47.154;27.614;2023-10-19T07:36:13;11.68;;;11.18;;
34737;SDS011;39910;47.154;27.614;2023-10-19T07:38:43;11.98;;;11.38;;
34737;SDS011;39910;47.154;27.614;2023-10-19T07:41:10;11.45;;;10.95;;
34737;SDS011;39910;47.154;27.614;2023-10-19T07:43:36;12.02;;;11.43;;
34737;SDS011;39910;47.154;27.614;2023-10-19T07:46:01;12.15;;;11.55;;
34737;SDS011;39910;47.154;27.614;2023-10-19T07:48:27;12.18;;;11.57;;
34737;SDS011;39910;47.154;27.614;2023-10-19T07:50:52;11.18;;;10.68;;
34737;SDS011;39910;47.154;27.614;2023-10-19T07:53:18;11.57;;;11.07;;
34737;SDS011;39910;47.154;27.614;2023-10-19T07:55:44;11.50;;;11.00;;
34737;SDS011;39910;47.154;27.614;2023-10-19T07:58:09;11.55;;;11.05;;
34737;SDS011;39910;47.154;27.614;2023-10-19T08:00:35;11.30;;;10.80;;
34737;SDS011;39910;47.154;27.614;2023-10-19T08:03:02;11.82;;;11.32;;
34737;SDS011;39910;47.154;27.614;2023-10-19T08:05:27;11.80;;;11.30;;
34737;SDS011;39910;47.154;27.614;2023-10-19T08:07:53;11.48;;;10.98;;
34737;SDS011;39910;47.154;27.614;2023-10-19T08:10:19;11.90;;;11.40;;
34737;SDS011;39910;47.154;27.614;2023-10-19T08:12:45;12.93;;;12.32;;
34737;SDS011;39910;47.154;27.614;2023-10-19T08:15:15;12.13;;;11.63;;
34737;SDS011;39910;47.154;27.614;2023-10-19T08:17:41;11.80;;;11.30;;
34737;SDS011;39910;47.154;27.614;2023-10-19T08:20:07;12.00;;;11.50;;
34737;SDS011;39910;47.154;27.614;2023-10-19T08:22:41;11.75;;;11.25;;
34737;SDS011;39910;47.154;27.614;2023-10-19T08:25:07;11.73;;;11.23;;
34737;SDS011;39910;47.154;27.614;2023-10-19T08:27:42;11.70;;;11.20;;
34737;SDS011;39910;47.154;27.614;2023-10-19T08:30:10;12.10;;;11.60;;
34737;SDS011;39910;47.154;27.614;2023-10-19T08:32:36;12.30;;;11.80;;
34737;SDS011;39910;47.154;27.614;2023-10-19T08:35:02;11.98;;;11.48;;
34737;SDS011;39910;47.154;27.614;2023-10-19T08:37:27;11.90;;;11.40;;
34737;SDS011;39910;47.154;27.614;2023-10-19T08:39:53;12.00;;;11.50;;
34737;SDS011;39910;47.154;27.614;2023-10-19T08:42:18;11.82;;;11.32;;
34737;SDS011;39910;47.154;27.614;2023-10-19T08:44:44;12.18;;;11.68;;
34737;SDS011;39910;47.154;27.614;2023-10-19T08:47:09;12.57;;;11.98;;
34737;SDS011;39910;47.154;27.614;2023-10-19T08:49:34;12.00;;;11.50;;
34737;SDS011;39910;47.154;27.614;2023-10-19T08:52:00;12.02;;;11.52;;
34737;SDS011;39910;47.154;27.614;2023-10-19T08:54:27;12.23;;;11.73;;
34737;SDS011;39910;47.154;27.614;2023-10-19T08:56:53;11.63;;;11.13;;
34737;SDS011;39910;47.154;27.614;2023-10-19T08:59:20;11.68;;;11.18;;
34737;SDS011;39910;47.154;27.614;2023-10-19T09:01:46;11.85;;;11.35;;
34737;SDS011;39910;47.154;27.614;2023-10-19T09:04:12;12.20;;;11.70;;
34737;SDS011;39910;47.154;27.614;2023-10-19T09:06:38;12.07;;;11.57;;
34737;SDS011;39910;47.154;27.614;2023-10-19T09:09:09;11.85;;;11.35;;
34737;SDS011;39910;47.154;27.614;2023-10-19T09:11:41;12.00;;;11.50;;
34737;SDS011;39910;47.154;27.614;2023-10-19T09:14:07;12.05;;;11.55;;
34737;SDS011;39910;47.154;27.614;2023-10-19T09:16:32;12.20;;;11.70;;
34737;SDS011;39910;47.154;27.614;2023-10-19T09:18:57;11.95;;;11.45;;
34737;SDS011;39910;47.154;27.614;2023-10-19T09:21:23;12.05;;;11.55;;
34737;SDS011;39910;47.154;27.614;2023-10-19T09:23:54;11.90;;;11.40;;
34737;SDS011;39910;47.154;27.614;2023-10-19T09:26:21;12.80;;;12.20;;
34737;SDS011;39910;47.154;27.614;2023-10-19T09:28:50;12.30;;;11.73;;
34737;SDS011;39910;47.154;27.614;2023-10-19T09:31:16;12.60;;;12.00;;
34737;SDS011;39910;47.154;27.614;2023-10-19T09:33:42;12.82;;;12.23;;
34737;SDS011;39910;47.154;27.614;2023-10-19T09:36:09;13.13;;;12.52;;
34737;SDS011;39910;47.154;27.614;2023-10-19T09:38:46;12.65;;;12.05;;
34737;SDS011;39910;47.154;27.614;2023-10-19T09:41:22;12.95;;;12.35;;
34737;SDS011;39910;47.154;27.614;2023-10-19T09:43:53;12.40;;;11.80;;
34737;SDS011;39910;47.154;27.614;2023-10-19T09:46:25;12.18;;;11.57;;
34737;SDS011;39910;47.154;27.614;2023-10-19T09:48:51;12.68;;;12.07;;
34737;SDS011;39910;47.154;27.614;2023-10-19T09:51:17;12.45;;;11.85;;
34737;SDS011;39910;47.154;27.614;2023-10-19T09:53:45;12.32;;;11.73;;
34737;SDS011;39910;47.154;27.614;2023-10-19T09:56:13;12.10;;;11.50;;
34737;SDS011;39910;47.154;27.614;2023-10-19T09:58:47;11.65;;;11.13;;
34737;SDS011;39910;47.154;27.614;2023-10-19T10:01:13;12.93;;;12.32;;
34737;SDS011;39910;47.154;27.614;2023-10-19T10:03:46;12.43;;;11.82;;
34737;SDS011;39910;47.154;27.614;2023-10-19T10:06:12;12.02;;;11.43;;
34737;SDS011;39910;47.154;27.614;2023-10-19T10:08:40;13.23;;;12.63;;
34737;SDS011;39910;47.154;27.614;2023-10-19T10:11:22;12.00;;;11.40;;
34737;SDS011;39910;47.154;27.614;2023-10-19T10:13:49;12.63;;;12.02;;
34737;SDS011;39910;47.154;27.614;2023-10-19T10:16:25;12.65;;;12.05;;
34737;SDS011;39910;47.154;27.614;2023-10-19T10:18:54;11.95;;;11.38;;
34737;SDS011;39910;47.154;27.614;2023-10-19T10:21:20;12.60;;;12.00;;
34737;SDS011;39910;47.154;27.614;2023-10-19T10:23:49;12.98;;;12.38;;
34737;SDS011;39910;47.154;27.614;2023-10-19T10:26:19;12.30;;;11.70;;
34737;SDS011;39910;47.154;27.614;2023-10-19T10:29:27;12.05;;;11.45;;
34737;SDS011;39910;47.154;27.614;2023-10-19T10:31:53;12.57;;;11.98;;
34737;SDS011;39910;47.154;27.614;2023-10-19T10:37:05;12.05;;;11.45;;
34737;SDS011;39910;47.154;27.614;2023-10-19T10:39:33;12.55;;;11.95;;
34737;SDS011;39910;47.154;27.614;2023-10-19T10:42:01;12.85;;;12.25;;
34737;SDS011;39910;47.154;27.614;2023-10-19T10:47:19;12.40;;;11.80;;
34737;SDS011;39910;47.154;27.614;2023-10-19T10:54:54;12.45;;;11.85;;
34737;SDS011;39910;47.154;27.614;2023-10-19T10:57:20;12.77;;;12.18;;
34737;SDS011;39910;47.154;27.614;2023-10-19T10:59:45;11.20;;;10.70;;
34737;SDS011;39910;47.154;27.614;2023-10-19T11:02:17;13.65;;;12.95;;
34737;SDS011;39910;47.154;27.614;2023-10-19T11:04:43;12.27;;;11.68;;
34737;SDS011;39910;47.154;27.614;2023-10-19T11:07:17;11.57;;;11.07;;
34737;SDS011;39910;47.154;27.614;2023-10-19T11:09:46;12.23;;;11.63;;
34737;SDS011;39910;47.154;27.614;2023-10-19T11:12:11;12.20;;;11.60;;
34737;SDS011;39910;47.154;27.614;2023-10-19T11:14:37;12.68;;;12.07;;
34737;SDS011;39910;47.154;27.614;2023-10-19T11:17:12;12.20;;;11.60;;
34737;SDS011;39910;47.154;27.614;2023-10-19T11:19:40;12.40;;;11.80;;
34737;SDS011;39910;47.154;27.614;2023-10-19T11:22:09;12.80;;;12.20;;
34737;SDS011;39910;47.154;27.614;2023-10-19T11:24:35;12.27;;;11.68;;
34737;SDS011;39910;47.154;27.614;2023-10-19T11:27:05;12.50;;;11.90;;
34737;SDS011;39910;47.154;27.614;2023-10-19T11:29:32;12.13;;;11.52;;
34737;SDS011;39910;47.154;27.614;2023-10-19T11:31:59;12.52;;;11.93;;
34737;SDS011;39910;47.154;27.614;2023-10-19T11:34:25;12.45;;;11.85;;
34737;SDS011;39910;47.154;27.614;2023-10-19T11:36:53;13.18;;;12.57;;
34737;SDS011;39910;47.154;27.614;2023-10-19T11:39:24;12.43;;;11.82;;
34737;SDS011;39910;47.154;27.614;2023-10-19T11:41:50;12.55;;;11.95;;
34737;SDS011;39910;47.154;27.614;2023-10-19T11:44:15;12.23;;;11.63;;
34737;SDS011;39910;47.154;27.614;2023-10-19T11:46:40;12.73;;;12.13;;
34737;SDS011;39910;47.154;27.614;2023-10-19T11:49:06;12.27;;;11.68;;
34737;SDS011;39910;47.154;27.614;2023-10-19T11:51:31;12.45;;;11.85;;
34737;SDS011;39910;47.154;27.614;2023-10-19T11:53:56;11.75;;;11.25;;
34737;SDS011;39910;47.154;27.614;2023-10-19T11:56:22;11.93;;;11.43;;
34737;SDS011;39910;47.154;27.614;2023-10-19T11:58:47;12.38;;;11.77;;
34737;SDS011;39910;47.154;27.614;2023-10-19T12:01:12;12.43;;;11.82;;
34737;SDS011;39910;47.154;27.614;2023-10-19T12:03:38;12.63;;;12.02;;
34737;SDS011;39910;47.154;27.614;2023-10-19T12:06:05;11.75;;;11.25;;
34737;SDS011;39910;47.154;27.614;2023-10-19T12:08:34;12.35;;;11.75;;
34737;SDS011;39910;47.154;27.614;2023-10-19T12:10:59;12.32;;;11.73;;
34737;SDS011;39910;47.154;27.614;2023-10-19T12:13:27;12.27;;;11.68;;
34737;SDS011;39910;47.154;27.614;2023-10-19T12:15:53;12.73;;;12.13;;
34737;SDS011;39910;47.154;27.614;2023-10-19T12:18:20;12.18;;;11.57;;
34737;SDS011;39910;47.154;27.614;2023-10-19T12:20:45;12.35;;;11.75;;
34737;SDS011;39910;47.154;27.614;2023-10-19T12:23:11;12.23;;;11.63;;
34737;SDS011;39910;47.154;27.614;2023-10-19T12:25:37;12.40;;;11.80;;
34737;SDS011;39910;47.154;27.614;2023-10-19T12:28:03;12.77;;;12.18;;
34737;SDS011;39910;47.154;27.614;2023-10-19T12:30:29;12.77;;;12.18;;
34737;SDS011;39910;47.154;27.614;2023-10-19T12:33:00;11.95;;;11.45;;
34737;SDS011;39910;47.154;27.614;2023-10-19T12:35:26;12.32;;;11.73;;
34737;SDS011;39910;47.154;27.614;2023-10-19T12:38:10;12.82;;;12.23;;
34737;SDS011;39910;47.154;27.614;2023-10-19T12:40:44;12.00;;;11.48;;
34737;SDS011;39910;47.154;27.614;2023-10-19T12:43:11;12.10;;;11.55;;
34737;SDS011;39910;47.154;27.614;2023-10-19T12:45:37;12.40;;;11.80;;
34737;SDS011;39910;47.154;27.614;2023-10-19T12:48:03;12.50;;;11.90;;
34737;SDS011;39910;47.154;27.614;2023-10-19T12:50:29;12.30;;;11.70;;
34737;SDS011;39910;47.154;27.614;2023-10-19T12:52:55;12.05;;;11.52;;
34737;SDS011;39910;47.154;27.614;2023-10-19T12:55:21;12.20;;;11.63;;
34737;SDS011;39910;47.154;27.614;2023-10-19T12:57:46;13.10;;;12.50;;
34737;SDS011;39910;47.154;27.614;2023-10-19T13:00:12;12.00;;;11.50;;
34737;SDS011;39910;47.154;27.614;2023-10-19T13:02:51;12.73;;;12.13;;
34737;SDS011;39910;47.154;27.614;2023-10-19T13:05:17;12.85;;;12.25;;
34737;SDS011;39910;47.154;27.614;2023-10-19T13:07:45;12.00;;;11.50;;
34737;SDS011;39910;47.154;27.614;2023-10-19T13:10:11;12.13;;;11.52;;
34737;SDS011;39910;47.154;27.614;2023-10-19T13:12:36;11.90;;;11.40;;
34737;SDS011;39910;47.154;27.614;2023-10-19T13:15:02;11.90;;;11.40;;
34737;SDS011;39910;47.154;27.614;2023-10-19T13:17:28;12.93;;;12.32;;
34737;SDS011;39910;47.154;27.614;2023-10-19T13:19:53;12.38;;;11.77;;
34737;SDS011;39910;47.154;27.614;2023-10-19T13:22:21;12.45;;;11.85;;
34737;SDS011;39910;47.154;27.614;2023-10-19T13:24:47;12.52;;;11.93;;
34737;SDS011;39910;47.154;27.614;2023-10-19T13:27:12;12.70;;;12.10;;
34737;SDS011;39910;47.154;27.614;2023-10-19T13:29:37;12.07;;;11.57;;
34737;SDS011;39910;47.154;27.614;2023-10-19T13:32:06;12.02;;;11.52;;
34737;SDS011;39910;47.154;27.614;2023-10-19T13:34:31;12.50;;;11.90;;
34737;SDS011;39910;47.154;27.614;2023-10-19T13:36:57;12.90;;;12.30;;
34737;SDS011;39910;47.154;27.614;2023-10-19T13:39:22;12.60;;;12.00;;
34737;SDS011;39910;47.154;27.614;2023-10-19T13:41:53;13.15;;;12.55;;
34737;SDS011;39910;47.154;27.614;2023-10-19T13:44:18;11.88;;;11.38;;
34737;SDS011;39910;47.154;27.614;2023-10-19T13:46:46;12.32;;;11.73;;
34737;SDS011;39910;47.154;27.614;2023-10-19T13:49:11;12.98;;;12.38;;
34737;SDS011;39910;47.154;27.614;2023-10-19T13:51:36;11.98;;;11.48;;
34737;SDS011;39910;47.154;27.614;2023-10-19T13:54:02;13.05;;;12.45;;
34737;SDS011;39910;47.154;27.614;2023-10-19T13:56:27;12.38;;;11.77;;
34737;SDS011;39910;47.154;27.614;2023-10-19T13:58:52;12.02;;;11.48;;
34737;SDS011;39910;47.154;27.614;2023-10-19T14:01:18;12.63;;;12.02;;
34737;SDS011;39910;47.154;27.614;2023-10-19T14:03:43;11.80;;;11.30;;
34737;SDS011;39910;47.154;27.614;2023-10-19T14:06:12;11.68;;;11.18;;
34737;SDS011;39910;47.154;27.614;2023-10-19T14:08:38;12.38;;;11.77;;
34737;SDS011;39910;47.154;27.614;2023-10-19T14:11:03;13.25;;;12.65;;
34737;SDS011;39910;47.154;27.614;2023-10-19T14:13:29;12.85;;;12.25;;
34737;SDS011;39910;47.154;27.614;2023-10-19T14:15:54;12.60;;;12.00;;
34737;SDS011;39910;47.154;27.614;2023-10-19T14:18:20;12.70;;;12.10;;
34737;SDS011;39910;47.154;27.614;2023-10-19T14:20:46;12.52;;;11.93;;
34737;SDS011;39910;47.154;27.614;2023-10-19T14:23:12;13.45;;;12.85;;
34737;SDS011;39910;47.154;27.614;2023-10-19T14:25:37;11.82;;;11.30;;
34737;SDS011;39910;47.154;27.614;2023-10-19T14:28:07;12.55;;;11.95;;
34737;SDS011;39910;47.154;27.614;2023-10-19T14:30:32;12.63;;;12.02;;
34737;SDS011;39910;47.154;27.614;2023-10-19T14:32:58;12.88;;;12.27;;